Time;durP1;ratioP1;P1;durP2;ratioP2;P2;SDS_P1;SDS_P2;PMS_P1;PMS_P2;Temp;Humidity;BMP_temperature;BMP_pressure;BME280_temperature;BME280_humidity;BME280_pressure;Samples;Min_cycle;Max_cycle;Signal;HPM_P1;HPM_P2
2023/08/29 00:01:23;;;;;;;6.78;6.07;;;;;;;14.89;92.08;101017.44;3603466;39;20066;-66
2023/08/29 00:03:51;;;;;;;6.60;5.82;;;;;;;14.34;91.98;100937.78;3603630;39;20736;-66
2023/08/29 00:06:17;;;;;;;6.80;6.10;;;;;;;14.68;91.81;100994.72;3605313;39;20087;-66
2023/08/29 00:08:43;;;;;;;6.55;6.05;;;;;;;14.82;91.88;101027.03;3601725;39;20054;-65
2023/08/29 00:11:09;;;;;;;6.68;6.07;;;;;;;14.79;91.95;101028.13;3595132;39;20094;-66
2023/08/29 00:13:35;;;;;;;6.95;6.25;;;;;;;14.77;92.42;101026.50;3605637;39;20083;-66
2023/08/29 00:16:00;;;;;;;6.53;5.50;;;;;;;14.75;92.71;101021.22;3603522;39;20055;-65
2023/08/29 00:18:26;;;;;;;7.35;6.63;;;;;;;14.73;92.89;101015.06;3603468;39;20148;-66
2023/08/29 00:20:52;;;;;;;7.18;6.53;;;;;;;14.69;92.57;101010.00;3604932;39;20085;-66
2023/08/29 00:23:18;;;;;;;7.03;6.38;;;;;;;14.72;92.88;101009.78;3603055;39;20086;-65
2023/08/29 00:25:45;;;;;;;7.00;6.38;;;;;;;14.70;92.78;101006.31;3602976;39;20305;-66
2023/08/29 00:28:11;;;;;;;7.95;6.68;;;;;;;14.65;92.79;101003.94;3603396;39;20067;-66
2023/08/29 00:30:39;;;;;;;8.27;7.20;;;;;;;14.62;92.74;101005.06;3604127;39;20043;-66
2023/08/29 00:33:05;;;;;;;7.32;6.63;;;;;;;14.60;93.18;101000.75;3604195;39;20394;-66
2023/08/29 00:35:31;;;;;;;9.38;7.30;;;;;;;14.58;93.54;100992.72;3602113;39;20047;-66
2023/08/29 00:37:58;;;;;;;7.80;6.93;;;;;;;14.48;93.02;100980.84;3602838;39;20379;-66
2023/08/29 00:40:30;;;;;;;7.10;6.40;;;;;;;14.57;92.85;101003.69;3605601;39;20099;-66
2023/08/29 00:43:00;;;;;;;8.23;6.68;;;;;;;14.56;93.16;100999.25;3602901;39;20066;-66
2023/08/29 00:45:31;;;;;;;7.70;6.90;;;;;;;14.54;93.11;100999.34;3602436;39;20055;-66
2023/08/29 00:47:58;;;;;;;7.80;7.00;;;;;;;14.32;93.09;100956.81;3607663;39;20082;-66
2023/08/29 00:50:25;;;;;;;7.85;7.05;;;;;;;14.39;92.78;100974.28;3603480;39;20046;-66
2023/08/29 00:53:03;;;;;;;8.32;7.55;;;;;;;14.29;93.48;100959.75;3600525;39;20056;-67
2023/08/29 00:55:31;;;;;;;7.90;7.07;;;;;;;14.49;93.07;100997.94;3604023;39;20071;-66
2023/08/29 00:57:59;;;;;;;8.48;7.68;;;;;;;14.37;93.00;100984.38;3603906;39;20553;-67
2023/08/29 01:00:30;;;;;;;8.07;7.35;;;;;;;14.44;92.52;100995.59;3602464;39;20051;-67
2023/08/29 01:02:57;;;;;;;7.95;7.25;;;;;;;14.41;92.75;100995.81;3601987;39;20059;-67
2023/08/29 01:05:23;;;;;;;10.75;7.47;;;;;;;14.24;93.48;100969.16;3602128;39;20052;-66
2023/08/29 01:07:53;;;;;;;8.50;7.80;;;;;;;14.40;93.78;100988.69;3597457;39;20059;-66
2023/08/29 01:10:33;;;;;;;8.18;7.30;;;;;;;14.37;93.06;100989.78;3602702;39;20058;-66
2023/08/29 01:13:21;;;;;;;8.25;7.45;;;;;;;14.34;92.39;100983.75;3602573;39;20055;-66
2023/08/29 01:15:53;;;;;;;8.05;7.32;;;;;;;14.32;92.01;100988.41;3601090;39;20067;-66
2023/08/29 01:18:23;;;;;;;8.18;7.43;;;;;;;14.29;92.00;100991.34;3603156;39;20063;-66
2023/08/29 01:21:02;;;;;;;8.07;7.28;;;;;;;14.26;92.44;100992.41;3604707;39;20059;-65
2023/08/29 01:23:49;;;;;;;8.68;7.60;;;;;;;14.22;92.33;100985.53;3601357;39;20056;-66
2023/08/29 01:26:16;;;;;;;9.52;7.57;;;;;;;14.22;93.05;100990.06;3604151;39;20107;-67
2023/08/29 01:28:46;;;;;;;8.95;8.15;;;;;;;14.21;92.62;100997.31;3603814;39;21807;-66
2023/08/29 01:31:13;;;;;;;8.90;8.00;;;;;;;14.22;93.27;101000.88;3601337;39;20191;-66
2023/08/29 01:33:41;;;;;;;10.07;8.20;;;;;;;14.22;93.69;100998.19;3602785;39;20062;-67
2023/08/29 01:36:07;;;;;;;8.27;7.47;;;;;;;13.99;93.25;100962.91;3603203;39;20400;-66
2023/08/29 01:38:33;;;;;;;8.88;8.07;;;;;;;13.95;93.18;100955.97;3600961;39;20059;-67
2023/08/29 01:40:59;;;;;;;8.43;7.63;;;;;;;14.14;92.81;100996.91;3604343;39;20050;-66
2023/08/29 01:43:24;;;;;;;8.55;7.75;;;;;;;14.15;93.15;100997.78;3601946;39;20472;-66
2023/08/29 01:45:50;;;;;;;9.48;8.50;;;;;;;14.13;93.62;101003.28;3602950;39;20084;-66
2023/08/29 01:48:16;;;;;;;8.95;7.70;;;;;;;14.11;93.50;100996.25;3603395;39;20047;-66
2023/08/29 01:50:43;;;;;;;9.60;8.60;;;;;;;14.10;93.31;100995.41;3600240;39;20052;-67
2023/08/29 01:53:09;;;;;;;8.95;7.70;;;;;;;14.09;92.98;100992.81;3601309;39;20047;-65
2023/08/29 01:55:38;;;;;;;9.15;8.25;;;;;;;14.08;92.82;100993.78;3601047;39;20368;-67
2023/08/29 01:58:08;;;;;;;10.15;8.75;;;;;;;14.03;93.01;100999.53;3602666;39;20299;-66
2023/08/29 02:00:35;;;;;;;9.18;8.38;;;;;;;14.04;92.79;101006.66;3601635;39;20065;-66
2023/08/29 02:03:01;;;;;;;9.95;8.40;;;;;;;13.89;92.21;100980.75;3602614;39;20146;-67
2023/08/29 02:05:27;;;;;;;10.27;9.15;;;;;;;14.01;92.34;101004.19;3602653;39;20404;-64
2023/08/29 02:07:53;;;;;;;9.13;8.23;;;;;;;14.00;92.25;101007.88;3602037;39;20063;-67
2023/08/29 02:10:18;;;;;;;8.38;7.57;;;;;;;13.87;92.33;100990.84;3603900;39;20055;-66
2023/08/29 02:12:44;;;;;;;9.40;8.50;;;;;;;13.97;93.14;101010.78;3600238;39;20064;-66
2023/08/29 02:15:10;;;;;;;9.90;7.47;;;;;;;13.95;92.68;101010.03;3602451;39;20051;-66
2023/08/29 02:17:38;;;;;;;8.23;7.53;;;;;;;13.94;93.07;101002.91;3601602;39;20125;-66
2023/08/29 02:20:06;;;;;;;9.98;8.57;;;;;;;13.81;92.21;100985.88;3603156;39;20409;-66
2023/08/29 02:22:32;;;;;;;8.45;7.20;;;;;;;13.89;91.98;101015.88;3602715;39;20075;-66
2023/08/29 02:25:00;;;;;;;8.65;7.75;;;;;;;13.78;91.61;101002.31;3603312;39;20090;-66
2023/08/29 02:27:26;;;;;;;8.95;8.05;;;;;;;13.84;92.36;101018.94;3603307;39;20066;-66
2023/08/29 02:29:52;;;;;;;8.77;7.88;;;;;;;13.84;92.44;101026.19;3600798;39;20054;-67
2023/08/29 02:32:18;;;;;;;9.23;8.30;;;;;;;13.84;92.76;101026.19;3602173;39;20053;-66
2023/08/29 02:34:43;;;;;;;14.48;8.45;;;;;;;13.82;92.47;101030.81;3602986;39;20146;-65
2023/08/29 02:37:09;;;;;;;9.25;8.30;;;;;;;13.82;92.44;101030.81;3602625;39;20066;-66
2023/08/29 02:39:34;;;;;;;9.43;8.48;;;;;;;13.80;92.67;101043.59;3601316;39;20330;-65
2023/08/29 02:42:00;;;;;;;8.00;7.20;;;;;;;13.76;92.18;101036.66;3603736;39;20582;-67
2023/08/29 02:44:26;;;;;;;8.85;7.95;;;;;;;13.77;92.50;101049.22;3601493;39;20062;-66
2023/08/29 02:46:52;;;;;;;9.75;8.82;;;;;;;13.70;93.08;101036.16;3602731;39;20059;-66
2023/08/29 02:49:17;;;;;;;9.48;8.50;;;;;;;13.72;91.93;101045.97;3591365;39;20082;-66
2023/08/29 02:51:43;;;;;;;9.60;7.82;;;;;;;13.70;91.87;101055.06;3602173;39;20055;-66
2023/08/29 02:54:09;;;;;;;9.13;8.23;;;;;;;13.69;91.94;101042.50;3601679;39;20055;-66
2023/08/29 02:56:34;;;;;;;9.60;8.70;;;;;;;13.68;92.51;101034.53;3599635;39;20063;-66
2023/08/29 02:59:00;;;;;;;8.00;7.20;;;;;;;13.65;91.70;101041.00;3594190;39;20075;-66
2023/08/29 03:01:26;;;;;;;9.50;8.48;;;;;;;13.64;92.01;101038.44;3601662;39;20107;-66
2023/08/29 03:03:52;;;;;;;10.73;8.02;;;;;;;13.63;92.57;101042.94;3600433;39;20063;-66
2023/08/29 03:06:17;;;;;;;10.73;9.13;;;;;;;13.62;92.74;101043.06;3601415;39;20054;-66
2023/08/29 03:08:43;;;;;;;9.13;8.20;;;;;;;13.57;93.42;101048.78;3603543;39;20291;-67
2023/08/29 03:11:09;;;;;;;9.68;8.77;;;;;;;13.55;93.52;101050.75;3600604;39;20063;-65
2023/08/29 03:13:34;;;;;;;10.35;8.48;;;;;;;13.54;94.02;101049.03;3601904;39;20066;-66
2023/08/29 03:16:00;;;;;;;10.48;8.50;;;;;;;13.50;94.13;101044.78;3600828;39;20422;-66
2023/08/29 03:18:28;;;;;;;9.18;8.30;;;;;;;13.50;94.50;101036.69;3605785;39;20051;-67
2023/08/29 03:21:04;;;;;;;10.52;8.85;;;;;;;13.29;94.50;101005.78;3602597;39;20059;-66
2023/08/29 03:23:30;;;;;;;10.93;9.02;;;;;;;13.50;95.21;101047.50;3593834;39;20055;-66
2023/08/29 03:26:04;;;;;;;9.63;8.50;;;;;;;13.48;94.70;101049.47;3602279;39;20051;-65
2023/08/29 03:28:30;;;;;;;10.75;8.60;;;;;;;13.49;94.40;101039.50;3601532;39;20058;-65
2023/08/29 03:30:55;;;;;;;11.30;8.55;;;;;;;13.50;95.01;101039.38;3600929;39;20054;-66
2023/08/29 03:33:21;;;;;;;12.38;8.60;;;;;;;13.51;95.03;101037.53;3603350;39;20055;-66
2023/08/29 03:35:58;;;;;;;9.95;8.23;;;;;;;13.36;94.19;101012.50;3601046;39;20074;-66
2023/08/29 03:38:24;;;;;;;9.30;8.05;;;;;;;13.47;94.72;101034.19;3604068;39;20149;-66
2023/08/29 03:40:57;;;;;;;9.60;8.60;;;;;;;13.47;94.66;101031.50;3601172;39;20094;-66
2023/08/29 03:43:25;;;;;;;;;;;;;;;13.41;94.90;101024.69;3601552;39;20082;-65
2023/08/29 03:45:57;;;;;;;9.15;8.23;;;;;;;13.43;94.50;101019.19;3601024;39;20159;-65
2023/08/29 03:48:22;;;;;;;9.98;8.10;;;;;;;13.40;93.96;101011.31;3605058;39;20050;-66
2023/08/29 03:50:49;;;;;;;9.05;8.15;;;;;;;13.42;94.21;101006.69;3601879;39;20106;-66
2023/08/29 03:53:15;;;;;;;8.57;7.78;;;;;;;13.39;93.75;101001.50;3603830;39;20054;-66
2023/08/29 03:55:41;;;;;;;8.95;7.75;;;;;;;13.37;93.95;101000.72;3602711;39;20051;-66
2023/08/29 03:58:07;;;;;;;10.35;8.40;;;;;;;13.02;93.35;100945.50;3602715;39;20394;-66
2023/08/29 04:00:32;;;;;;;9.48;8.25;;;;;;;13.34;93.72;101004.50;3603779;39;20066;-66
2023/08/29 04:03:06;;;;;;;8.25;7.38;;;;;;;13.31;93.46;101006.56;3604511;39;20406;-67
2023/08/29 04:05:32;;;;;;;8.85;7.68;;;;;;;13.30;93.56;101002.16;3604380;39;20116;-66
2023/08/29 04:07:58;;;;;;;7.65;6.90;;;;;;;13.27;92.88;101003.22;3602945;39;20055;-67
2023/08/29 04:10:23;;;;;;;9.00;7.38;;;;;;;13.23;93.00;100990.88;3603739;39;20322;-66
2023/08/29 04:12:49;;;;;;;10.75;7.38;;;;;;;13.23;92.71;100991.75;3595807;39;20103;-67
2023/08/29 04:15:15;;;;;;;11.35;7.85;;;;;;;13.25;92.74;100988.94;3602600;39;20076;-66
2023/08/29 04:17:40;;;;;;;9.30;7.57;;;;;;;13.24;92.67;100987.19;3602837;39;20203;-66
2023/08/29 04:20:12;;;;;;;9.02;7.80;;;;;;;13.25;92.79;100983.56;3605133;39;20393;-66
2023/08/29 04:22:39;;;;;;;9.05;7.97;;;;;;;13.21;92.52;100985.56;3602121;39;20047;-65
2023/08/29 04:25:06;;;;;;;8.73;7.53;;;;;;;13.21;92.51;100982.88;3603165;39;20078;-65
2023/08/29 04:27:32;;;;;;;10.38;8.18;;;;;;;13.01;92.61;100953.72;3603410;39;20083;-66
2023/08/29 04:29:58;;;;;;;8.60;7.70;;;;;;;13.17;92.28;100984.06;3604473;39;20132;-66
2023/08/29 04:32:24;;;;;;;10.18;8.52;;;;;;;13.14;92.04;100976.19;3602479;39;20135;-65
2023/08/29 04:34:50;;;;;;;9.88;8.10;;;;;;;12.86;92.19;100944.00;3602698;39;20067;-66
2023/08/29 04:37:18;;;;;;;8.48;7.57;;;;;;;13.07;92.52;100990.22;3602966;39;20102;-66
2023/08/29 04:39:46;;;;;;;8.77;7.97;;;;;;;13.04;92.93;100979.66;3602786;39;20099;-66
2023/08/29 04:42:12;;;;;;;8.35;7.53;;;;;;;12.85;93.04;100955.78;3603746;39;20050;-66
2023/08/29 04:44:38;;;;;;;9.10;8.20;;;;;;;13.00;92.60;100982.56;3594154;39;20397;-67
2023/08/29 04:47:03;;;;;;;9.45;8.23;;;;;;;12.98;92.53;100972.84;3600168;39;20057;-66
2023/08/29 04:49:29;;;;;;;8.20;7.40;;;;;;;12.96;93.04;100966.66;3602158;39;20130;-66
2023/08/29 04:51:55;;;;;;;9.00;7.63;;;;;;;12.95;93.03;100971.22;3605818;39;20051;-68
2023/08/29 04:54:22;;;;;;;8.60;7.70;;;;;;;12.96;93.31;100977.47;3602915;39;20092;-66
2023/08/29 04:56:47;;;;;;;9.80;8.38;;;;;;;12.91;93.25;100974.25;3601410;39;20142;-66
2023/08/29 04:59:13;;;;;;;9.25;8.35;;;;;;;12.93;93.40;100983.94;3606962;39;20055;-66
2023/08/29 05:01:39;;;;;;;8.93;8.02;;;;;;;12.93;93.39;100980.38;3601387;39;20054;-66
2023/08/29 05:04:05;;;;;;;9.13;8.23;;;;;;;12.93;93.44;100980.38;3601914;39;20066;-66
2023/08/29 05:06:31;;;;;;;10.48;7.68;;;;;;;12.95;93.45;100978.44;3604971;39;20374;-65
2023/08/29 05:08:56;;;;;;;8.50;7.70;;;;;;;12.95;93.14;100978.44;3601314;39;20054;-67
2023/08/29 05:11:22;;;;;;;10.00;8.23;;;;;;;12.97;93.50;100981.88;3602873;39;20059;-66
2023/08/29 05:13:48;;;;;;;8.63;7.63;;;;;;;12.97;94.31;100973.78;3602151;39;20071;-66
2023/08/29 05:16:13;;;;;;;9.00;7.75;;;;;;;13.02;94.05;100977.03;3601634;39;20061;-65
2023/08/29 05:18:39;;;;;;;11.35;7.93;;;;;;;13.07;93.97;100979.44;3601989;39;20050;-67
2023/08/29 05:21:04;;;;;;;8.90;8.00;;;;;;;13.07;94.16;100974.91;3603018;39;20071;-67
2023/08/29 05:23:30;;;;;;;9.00;8.07;;;;;;;13.16;93.70;100976.94;3601234;39;20047;-67
2023/08/29 05:25:55;;;;;;;8.98;8.07;;;;;;;13.19;93.50;100976.75;3605585;39;20055;-66
2023/08/29 05:28:21;;;;;;;11.38;8.60;;;;;;;13.19;93.51;100967.75;3604686;39;20385;-67
2023/08/29 05:30:47;;;;;;;10.13;8.65;;;;;;;13.18;94.70;100966.88;3603365;39;20067;-67
2023/08/29 05:33:13;;;;;;;9.20;8.30;;;;;;;13.26;94.59;100979.00;3606798;39;20244;-67
2023/08/29 05:35:38;;;;;;;10.05;9.05;;;;;;;13.30;94.66;100980.53;3603300;39;20055;-65
2023/08/29 05:38:04;;;;;;;10.35;9.30;;;;;;;13.35;94.83;100986.47;3603955;39;20051;-66
2023/08/29 05:40:29;;;;;;;10.30;9.20;;;;;;;13.41;95.35;100977.94;3601955;39;20086;-67
2023/08/29 05:42:55;;;;;;;12.55;9.05;;;;;;;13.50;95.00;100979.97;3605551;39;20059;-66
2023/08/29 05:45:21;;;;;;;11.23;10.02;;;;;;;13.43;95.33;100960.66;3605700;39;20051;-66
2023/08/29 05:47:46;;;;;;;10.35;9.25;;;;;;;13.58;94.83;100974.91;3604043;39;20066;-67
2023/08/29 05:50:12;;;;;;;10.50;9.50;;;;;;;13.64;94.67;100979.84;3604173;39;20097;-66
2023/08/29 05:52:38;;;;;;;9.65;8.70;;;;;;;13.68;95.09;100983.19;3602065;39;20054;-66
2023/08/29 05:55:04;;;;;;;10.43;9.32;;;;;;;13.70;95.05;100983.94;3600499;39;20062;-66
2023/08/29 05:57:30;;;;;;;10.52;9.48;;;;;;;13.75;95.14;100983.63;3603891;39;20059;-67
2023/08/29 05:59:56;;;;;;;10.60;9.60;;;;;;;13.78;94.57;100991.50;3601938;39;20417;-66
2023/08/29 06:02:21;;;;;;;12.15;9.55;;;;;;;13.85;95.12;100984.66;3604684;39;20054;-66
2023/08/29 06:04:47;;;;;;;11.05;9.80;;;;;;;13.89;94.65;100984.34;3603941;39;20067;-66
2023/08/29 06:07:13;;;;;;;10.65;9.55;;;;;;;13.93;94.25;100991.25;3604897;39;20119;-67
2023/08/29 06:09:39;;;;;;;10.20;9.20;;;;;;;13.99;94.16;100983.66;3599747;39;20306;-67
2023/08/29 06:12:06;;;;;;;12.98;9.95;;;;;;;13.60;94.37;100910.81;3605303;39;20071;-66
2023/08/29 06:14:32;;;;;;;11.15;10.05;;;;;;;14.04;94.45;100976.94;3603434;39;20071;-66
2023/08/29 06:16:57;;;;;;;11.85;10.55;;;;;;;14.13;95.47;100983.50;3606496;39;20127;-66
2023/08/29 06:19:23;;;;;;;12.00;10.50;;;;;;;14.17;95.32;100985.00;3604522;39;20065;-67
2023/08/29 06:21:49;;;;;;;13.68;11.25;;;;;;;14.22;96.06;100984.66;3602695;39;20067;-66
2023/08/29 06:24:15;;;;;;;15.43;10.88;;;;;;;14.27;96.78;100982.47;3602971;39;20047;-66
2023/08/29 06:26:41;;;;;;;14.65;11.02;;;;;;;14.32;96.77;100981.16;3602528;39;20080;-67
2023/08/29 06:29:07;;;;;;;14.30;11.13;;;;;;;14.39;96.71;100977.00;3602202;39;20055;-66
2023/08/29 06:31:33;;;;;;;14.00;11.93;;;;;;;14.47;97.07;100984.53;3601251;39;20063;-66
2023/08/29 06:33:59;;;;;;;12.40;11.10;;;;;;;14.54;96.44;100980.41;3602838;39;20108;-67
2023/08/29 06:36:27;;;;;;;15.10;11.73;;;;;;;14.59;96.87;100975.53;3602884;39;20297;-64
2023/08/29 06:38:53;;;;;;;14.13;10.93;;;;;;;14.70;96.96;100985.53;3602923;39;20765;-65
2023/08/29 06:41:19;;;;;;;13.23;11.40;;;;;;;14.80;96.92;100982.97;3601715;39;20053;-65
2023/08/29 06:43:46;;;;;;;13.43;10.93;;;;;;;14.82;95.93;100970.19;3603199;39;20082;-64
2023/08/29 06:46:13;;;;;;;11.52;10.32;;;;;;;14.93;96.04;100978.31;3602511;39;20390;-65
2023/08/29 06:48:40;;;;;;;12.15;10.57;;;;;;;15.00;95.59;100982.31;3607047;39;20083;-66
2023/08/29 06:51:07;;;;;;;11.68;10.38;;;;;;;15.17;95.49;100982.81;3600990;39;20186;-65
2023/08/29 06:53:33;;;;;;;11.95;10.73;;;;;;;15.26;94.85;100992.94;3600745;39;20055;-65
2023/08/29 06:55:59;;;;;;;10.65;9.65;;;;;;;15.40;94.89;100989.97;3599499;39;20160;-65
2023/08/29 06:58:25;;;;;;;11.73;10.52;;;;;;;15.51;94.96;100987.28;3602037;39;20048;-65
2023/08/29 07:00:53;;;;;;;13.13;9.65;;;;;;;15.62;93.51;100986.41;3604763;39;20055;-65
2023/08/29 07:03:19;;;;;;;11.32;10.23;;;;;;;15.75;92.76;100980.91;3600527;39;20052;-65
2023/08/29 07:05:45;;;;;;;10.95;9.85;;;;;;;15.80;92.05;100973.25;3603818;39;20050;-64
2023/08/29 07:08:11;;;;;;;12.30;9.30;;;;;;;15.94;91.84;100989.25;3603042;39;20336;-65
2023/08/29 07:10:36;;;;;;;11.05;9.60;;;;;;;16.02;92.95;100981.34;3599373;39;20081;-66
2023/08/29 07:13:04;;;;;;;11.75;9.40;;;;;;;16.00;91.64;100967.06;3603635;39;20146;-66
2023/08/29 07:15:30;;;;;;;9.70;8.80;;;;;;;16.07;90.98;100966.56;3604378;39;20378;-64
2023/08/29 07:17:56;;;;;;;9.95;8.95;;;;;;;16.33;90.26;100986.06;3600886;39;20129;-65
2023/08/29 07:20:22;;;;;;;10.90;9.15;;;;;;;16.43;90.14;100987.91;3603045;39;20047;-65
2023/08/29 07:22:47;;;;;;;9.95;8.95;;;;;;;16.52;89.47;100997.09;3599942;39;20051;-65
2023/08/29 07:25:15;;;;;;;8.95;8.05;;;;;;;16.58;89.71;100991.16;3601174;39;20330;-64
2023/08/29 07:27:41;;;;;;;9.60;8.40;;;;;;;16.63;88.55;100996.22;3605783;39;20051;-65
2023/08/29 07:30:10;;;;;;;9.25;8.27;;;;;;;16.72;89.00;100995.44;3605221;39;20054;-64
2023/08/29 07:32:36;;;;;;;9.73;8.45;;;;;;;16.82;89.67;100996.41;3604427;39;20124;-65
2023/08/29 07:35:02;;;;;;;9.40;8.50;;;;;;;16.83;88.97;100981.81;3603298;39;20043;-64
2023/08/29 07:37:28;;;;;;;9.13;8.00;;;;;;;16.89;88.99;100983.16;3604484;39;20140;-65
2023/08/29 07:39:54;;;;;;;11.93;7.70;;;;;;;17.07;87.91;100999.72;3605401;39;20051;-65
2023/08/29 07:42:20;;;;;;;9.45;7.82;;;;;;;17.13;87.89;100993.78;3605971;39;20055;-65
2023/08/29 07:44:45;;;;;;;9.05;7.93;;;;;;;17.21;87.55;101003.97;3602769;39;20051;-65
2023/08/29 07:47:11;;;;;;;9.40;8.50;;;;;;;17.31;87.97;101002.16;3605186;39;20079;-65
2023/08/29 07:49:37;;;;;;;9.63;7.45;;;;;;;17.40;86.26;101002.22;3603758;39;20405;-65
2023/08/29 07:52:03;;;;;;;10.55;7.72;;;;;;;17.47;85.59;101004.38;3603714;39;20059;-67
2023/08/29 07:54:28;;;;;;;8.50;7.70;;;;;;;17.54;87.04;101003.72;3593842;39;20079;-65
2023/08/29 07:56:54;;;;;;;7.90;7.20;;;;;;;17.62;85.96;100997.59;3606270;39;20309;-65
2023/08/29 07:59:20;;;;;;;8.35;7.55;;;;;;;17.70;85.06;100999.66;3604930;39;20059;-65
2023/08/29 08:01:48;;;;;;;7.80;7.10;;;;;;;17.78;84.58;100995.25;3606526;39;20047;-65
2023/08/29 08:04:13;;;;;;;7.15;6.55;;;;;;;17.92;84.04;100995.88;3603355;39;20070;-65
2023/08/29 08:06:39;;;;;;;8.23;6.25;;;;;;;18.05;82.55;100996.50;3605266;39;20059;-65
2023/08/29 08:09:05;;;;;;;7.43;6.18;;;;;;;18.15;82.30;100996.53;3602567;39;20271;-65
2023/08/29 08:11:31;;;;;;;7.95;6.40;;;;;;;18.19;81.63;100998.81;3605434;39;20059;-65
2023/08/29 08:13:57;;;;;;;6.68;5.95;;;;;;;18.26;82.89;100991.81;3602777;39;20047;-67
2023/08/29 08:16:22;;;;;;;7.88;6.43;;;;;;;18.46;81.25;101000.88;3605393;39;20114;-65
2023/08/29 08:18:48;;;;;;;7.13;6.53;;;;;;;18.58;80.73;101004.31;3604504;39;20386;-65
2023/08/29 08:21:14;;;;;;;6.68;5.97;;;;;;;18.64;80.57;101008.34;3605048;39;20067;-65
2023/08/29 08:23:39;;;;;;;7.15;6.47;;;;;;;18.77;80.50;101000.75;3604882;39;20099;-65
2023/08/29 08:26:05;;;;;;;7.32;4.22;;;;;;;18.86;76.32;101001.78;3603029;39;20670;-65
2023/08/29 08:28:31;;;;;;;5.13;4.35;;;;;;;18.95;75.26;101006.34;3603716;39;20298;-65
2023/08/29 08:30:57;;;;;;;4.68;4.00;;;;;;;19.05;74.80;101006.34;3605974;39;20059;-65
2023/08/29 08:33:24;;;;;;;4.80;4.28;;;;;;;19.15;74.29;101004.47;3603811;39;20051;-65
2023/08/29 08:35:50;;;;;;;5.82;4.13;;;;;;;19.15;74.50;101005.31;3606618;39;20056;-65
2023/08/29 08:38:16;;;;;;;3.97;3.60;;;;;;;19.20;73.66;100994.84;3603861;39;20059;-65
2023/08/29 08:40:42;;;;;;;5.18;3.60;;;;;;;19.36;73.26;101009.72;3603423;39;20376;-65
2023/08/29 08:43:10;;;;;;;3.65;3.35;;;;;;;19.40;74.41;100989.34;3602520;39;20058;-65
2023/08/29 08:45:38;;;;;;;3.78;3.30;;;;;;;19.56;70.81;101010.53;3602826;39;20093;-67
2023/08/29 08:48:05;;;;;;;6.03;3.60;;;;;;;19.62;69.18;101001.75;3603005;39;20087;-65
2023/08/29 08:50:31;;;;;;;5.95;3.00;;;;;;;19.73;70.91;101003.44;3604434;39;20043;-65
2023/08/29 08:53:00;;;;;;;3.33;3.03;;;;;;;19.74;70.03;101010.66;3602931;39;20097;-65
2023/08/29 08:55:28;;;;;;;3.65;3.35;;;;;;;19.74;68.70;101005.19;3604244;39;20104;-65
2023/08/29 08:57:54;;;;;;;5.10;3.60;;;;;;;19.66;68.70;101001.34;3604242;39;20051;-68
2023/08/29 09:00:22;;;;;;;3.67;3.33;;;;;;;19.63;69.11;101000.72;3603189;39;20429;-65
2023/08/29 09:02:50;;;;;;;4.20;3.63;;;;;;;19.67;70.00;100999.47;3605205;39;20298;-65
2023/08/29 09:05:17;;;;;;;3.85;3.00;;;;;;;19.65;69.81;100999.63;3602874;39;20055;-67
2023/08/29 09:07:43;;;;;;;3.80;3.20;;;;;;;19.64;69.89;100997.06;3604866;39;20055;-65
2023/08/29 09:10:15;;;;;;;4.75;3.15;;;;;;;19.68;67.89;101004.78;3603712;39;20140;-65
2023/08/29 09:12:50;;;;;;;4.82;3.78;;;;;;;19.73;70.09;101001.59;3603861;39;20398;-65
2023/08/29 09:15:19;;;;;;;3.75;3.03;;;;;;;19.84;69.92;101003.28;3602729;39;20051;-65
2023/08/29 09:17:53;;;;;;;4.50;3.13;;;;;;;19.86;66.73;100990.34;3605178;39;20071;-65
2023/08/29 09:20:22;;;;;;;4.15;3.03;;;;;;;20.12;67.09;100998.69;3596857;39;20055;-66
2023/08/29 09:22:48;;;;;;;2.90;2.70;;;;;;;20.35;65.42;101007.28;3604353;39;20095;-65
2023/08/29 09:25:14;;;;;;;3.35;3.05;;;;;;;20.50;64.91;101008.47;3604631;39;20059;-65
2023/08/29 09:27:44;;;;;;;2.95;2.50;;;;;;;20.69;64.80;101010.25;3603290;39;20131;-65
2023/08/29 09:30:12;;;;;;;4.15;2.40;;;;;;;20.83;63.69;101019.75;3605000;39;20060;-65
2023/08/29 09:32:51;;;;;;;2.80;2.55;;;;;;;20.85;63.77;101013.13;3605665;39;20067;-65
2023/08/29 09:35:22;;;;;;;2.70;2.50;;;;;;;21.03;63.45;101013.09;3604727;39;20062;-65
2023/08/29 09:37:51;;;;;;;2.47;2.28;;;;;;;21.08;61.81;101009.88;3603011;39;20059;-65
2023/08/29 09:40:17;;;;;;;2.50;2.30;;;;;;;21.14;62.44;101008.41;3602851;39;20058;-65
2023/08/29 09:42:58;;;;;;;3.33;2.05;;;;;;;21.10;62.56;101011.44;3603058;39;20298;-65
2023/08/29 09:45:24;;;;;;;2.75;1.70;;;;;;;20.89;62.02;100982.75;3602432;39;20188;-65
2023/08/29 09:47:54;;;;;;;2.95;1.77;;;;;;;20.92;60.97;101010.59;3606203;39;20387;-65
2023/08/29 09:50:21;;;;;;;1.73;1.50;;;;;;;20.85;64.17;101006.81;3601939;39;20047;-65
2023/08/29 09:52:52;;;;;;;2.55;1.70;;;;;;;20.76;63.71;100997.66;3603744;39;20500;-65
2023/08/29 09:55:22;;;;;;;3.10;2.40;;;;;;;20.76;65.08;100988.63;3604575;39;20066;-65
2023/08/29 09:57:52;;;;;;;2.92;1.52;;;;;;;20.67;62.92;100995.00;3592332;39;20047;-65
2023/08/29 10:00:20;;;;;;;1.92;1.55;;;;;;;20.61;63.52;100991.91;3599881;39;20142;-66
2023/08/29 10:02:50;;;;;;;2.53;1.63;;;;;;;20.60;63.49;100994.78;3601429;39;20059;-65
2023/08/29 10:05:24;;;;;;;2.38;2.20;;;;;;;20.55;63.94;100989.81;3601473;39;20136;-64
2023/08/29 10:07:59;;;;;;;2.53;1.88;;;;;;;20.49;64.05;100984.03;3592138;39;20055;-65
2023/08/29 10:10:26;;;;;;;2.78;1.88;;;;;;;20.45;64.17;100997.16;3600133;39;20320;-65
2023/08/29 10:12:55;;;;;;;2.58;2.22;;;;;;;20.46;64.38;100982.50;3601443;39;20055;-66
2023/08/29 10:15:21;;;;;;;2.95;1.80;;;;;;;20.58;63.69;100986.75;3591731;39;20047;-65
2023/08/29 10:17:49;;;;;;;1.60;1.50;;;;;;;20.70;62.61;100994.69;3607063;39;20066;-65
2023/08/29 10:20:18;;;;;;;2.25;1.77;;;;;;;20.71;61.58;100990.94;3605217;39;20059;-65
2023/08/29 10:22:48;;;;;;;3.15;1.80;;;;;;;20.70;62.03;100978.31;3606286;39;20047;-65
2023/08/29 10:25:14;;;;;;;1.73;1.63;;;;;;;20.76;61.72;100985.88;3595121;39;20467;-66
2023/08/29 10:27:42;;;;;;;2.00;1.13;;;;;;;20.75;60.42;100987.75;3595478;39;20062;-65
2023/08/29 10:30:09;;;;;;;1.58;1.48;;;;;;;20.74;61.12;100982.44;3601248;39;20150;-65
2023/08/29 10:32:39;;;;;;;1.90;1.05;;;;;;;20.77;61.45;100979.38;3604020;39;20374;-65
2023/08/29 10:35:05;;;;;;;1.83;1.25;;;;;;;20.74;61.30;100975.13;3604029;39;20387;-65
2023/08/29 10:37:31;;;;;;;2.28;1.30;;;;;;;20.73;60.53;100978.84;3605487;39;20057;-65
2023/08/29 10:40:11;;;;;;;1.67;1.20;;;;;;;20.79;62.70;100978.22;3601456;39;20067;-65
2023/08/29 10:43:00;;;;;;;2.97;1.35;;;;;;;20.80;60.29;100984.53;3604816;39;20058;-65
2023/08/29 10:45:45;;;;;;;2.65;1.23;;;;;;;20.87;60.79;100980.19;3602646;39;20051;-65
2023/08/29 10:48:39;;;;;;;1.25;1.15;;;;;;;20.89;60.84;100969.94;3603083;39;20313;-64
2023/08/29 10:51:10;;;;;;;2.85;1.60;;;;;;;20.99;60.96;100972.56;3603958;39;20074;-65
2023/08/29 10:53:53;;;;;;;1.92;1.35;;;;;;;20.95;59.80;100966.56;3603392;39;20039;-65
2023/08/29 10:56:27;;;;;;;1.65;1.30;;;;;;;20.97;60.63;100964.53;3592784;39;20275;-65
2023/08/29 10:58:53;;;;;;;1.75;1.52;;;;;;;20.99;60.97;100964.38;3599630;39;20087;-66
2023/08/29 11:01:26;;;;;;;3.25;1.40;;;;;;;21.09;61.05;100957.81;3604607;39;20448;-66
2023/08/29 11:03:52;;;;;;;2.65;1.40;;;;;;;21.22;59.60;100951.91;3606688;39;20046;-66
2023/08/29 11:06:21;;;;;;;1.40;1.30;;;;;;;21.49;60.07;100958.25;3601058;39;20872;-64
2023/08/29 11:08:47;;;;;;;1.67;1.50;;;;;;;21.79;57.84;100956.84;3604840;39;20141;-63
2023/08/29 11:11:22;;;;;;;1.70;1.60;;;;;;;21.91;55.96;100952.78;3602611;39;20430;-64
2023/08/29 11:14:04;;;;;;;2.38;1.60;;;;;;;22.27;57.00;100958.06;3602986;39;20166;-63
2023/08/29 11:17:22;;;;;;;2.00;1.60;;;;;;;22.89;54.12;100963.06;3602074;39;20325;-64
2023/08/29 11:20:08;;;;;;;3.33;1.85;;;;;;;23.33;52.01;100949.84;3599650;39;20311;-64
2023/08/29 11:22:34;;;;;;;3.13;1.48;;;;;;;23.53;51.74;100942.09;3602526;39;20056;-64
2023/08/29 11:25:00;;;;;;;1.77;1.50;;;;;;;23.80;51.82;100939.94;3600651;39;20367;-65